Terminal Aerodrome Forecast
Issued by NWS Green Bay, WI

Home | Current Version | Previous Version | Text Only | Print | Product List | Glossary On
Versions: 1 2 3 4 5 6 7 8 9 10 11 12 13 14 15 16 17 18 19 20 21 22 23 24 25 26 27 28 29 30 31 32 33 34 35 36 37 38 39 40 41 42 43 44 45 46 47 48 49 50
000
FTUS43 KGRB 262300
TAFGRB
TAF
KGRB 262337Z 2700/2724 35007KT 5SM BR BKN007 OVC015
     FM270900 02005KT 5SM -RASN BR BKN006 BKN012
     FM271400 03005KT 2SM -RASN BR OVC009
     FM271600 35007KT 1 1/2SM -SN BKN010
     FM271900 29011G15KT 5SM -SN BKN016
     FM272100 29008KT P6SM SCT016 BKN070=

USA.gov is the U.S. government's official web portal to all federal, state and local government web resources and services.